Latest Weather Observations for Scone Airport

IDN60801

Issued at 2:35 pm EST Wednesday 24 September 2014 (issued every 30 minutes, with the page automatically refreshed every 10 minutes)

About weather observations | Map of weather stations | Latest weather observations for NSW | Other Formats
Station Details ID: 061363 Name: SCONE AIRPORT AWS Lat: -32.03 Lon: 150.83 Height: 221.4 m
Data from the previous 72 hours. | See also: Recent months at Scone Airport
Date/Time
EST
Temp
°C
App
Temp
°C
Dew
Point
Rel
Hum
%
Delta-T
°C
Wind Press
QNH
hPa
Press
MSL
hPa
Rain
since 9 am
mm
Dir
 
Spd
km/h
Gust
km/h
Spd
kts
Gust
kts
24/02:30pm 25.7 20.9 5.8 28 10.3 WNW 20 30 11 16 1017.3 1017.1 0.2
24/02:00pm 26.0 21.0 6.6 29 10.2 WNW 22 32 12 17 1017.8 1017.6 0.2
24/01:30pm 25.0 21.3 6.2 30 9.8 WNW 15 26 8 14 1018.2 1018.0 0.2
24/01:00pm 25.2 22.2 7.8 33 9.3 WNW 13 24 7 13 1018.8 1018.6 0.2
24/12:30pm 24.3 21.7 6.1 31 9.4 W 9 15 5 8 1019.5 1019.3 0.2
24/12:00pm 24.3 20.6 6.1 31 9.4 W 15 22 8 12 1020.0 1019.8 0.2
24/11:30am 23.8 21.3 6.6 33 9.0 NW 9 20 5 11 1020.7 1020.6 0.2
24/11:00am 22.9 20.3 7.8 38 8.0 W 11 17 6 9 1021.4 1021.2 0.2
24/10:30am 22.4 20.9 8.5 41 7.4 NNE 6 11 3 6 1021.7 1021.5 0.2
24/10:00am 21.5 20.8 10.0 48 6.3 WNW 4 9 2 5 1022.3 1022.1 0.0
24/09:30am 18.9 17.9 11.0 60 4.3 WNW 7 9 4 5 1022.9 1022.7 0.0
24/09:00am 15.9 16.1 11.9 77 2.2 SSE 2 6 1 3 1023.3 1023.1 0.0
24/08:30am 12.2 12.9 12.2 100 0.0 CALM 0 0 0 0 1023.5 1023.3 0.0
24/08:00am 10.8 11.0 10.6 99 0.1 CALM 0 0 0 0 1023.6 1023.4 0.0
24/07:30am 9.4 8.9 9.3 99 0.1 WNW 2 6 1 3 1023.8 1023.6 0.0
24/07:00am 8.7 7.2 8.6 99 0.0 NW 6 7 3 4 1023.8 1023.6 0.0
24/06:30am 8.5 8.1 8.4 99 0.0 CALM 0 0 0 0 1023.7 1023.5 0.0
24/06:00am 7.5 6.9 7.4 99 0.0 CALM 0 0 0 0 1023.6 1023.4 0.0
24/05:30am 7.6 7.0 7.5 99 0.0 CALM 0 0 0 0 1023.5 1023.3 0.0
24/05:00am 7.4 6.4 7.3 99 0.0 E 2 7 1 4 1023.3 1023.1 0.0
24/04:30am 7.1 6.0 7.0 99 0.0 W 2 6 1 3 1023.2 1023.0 0.0
24/04:00am 6.6 5.8 6.5 99 0.0 CALM 0 0 0 0 1023.2 1023.0 0.0
24/03:30am 6.0 5.1 5.9 99 0.0 CALM 0 0 0 0 1023.1 1022.9 0.0
24/03:00am 6.1 5.2 6.0 99 0.0 CALM 0 0 0 0 1023.3 1023.1 0.0
24/02:30am 6.9 6.2 6.8 99 0.0 CALM 0 0 0 0 1023.4 1023.2 0.0
24/02:00am 6.6 5.8 6.5 99 0.0 CALM 0 0 0 0 1023.7 1023.5 0.0
24/01:30am 6.6 5.8 6.5 99 0.0 CALM 0 0 0 0 1024.3 1024.2 0.0
24/01:00am 7.0 6.3 6.9 99 0.0 CALM 0 0 0 0 1024.4 1024.3 0.0
24/12:30am 7.5 6.9 7.2 98 0.1 CALM 0 0 0 0 1024.7 1024.6 0.0
24/12:00am 8.0 7.5 7.7 98 0.1 NW 0 0 0 0 1025.0 1024.9 0.0
 
Date/Time
EST
Temp
°C
App
Temp
°C
Dew
Point
Rel
Hum
%
Delta-T
°C
Wind Press
QNH
hPa
Press
MSL
hPa
Rain
since 9 am
mm
Dir
 
Spd
km/h
Gust
km/h
Spd
kts
Gust
kts
23/11:30pm 8.4 7.8 7.6 95 0.4 CALM 0 0 0 0 1024.9 1024.8 0.0
23/11:00pm 8.7 7.9 8.1 96 0.3 NW 2 7 1 4 1025.1 1025.0 0.0
23/10:30pm 9.3 8.5 8.1 92 0.6 NE 2 7 1 4 1025.1 1025.0 0.0
23/10:00pm 10.8 9.6 9.4 91 0.7 NE 6 7 3 4 1025.2 1025.1 0.0
23/09:30pm 11.9 10.8 9.8 87 1.1 ESE 6 7 3 4 1025.0 1024.9 0.0
23/09:00pm 13.2 11.6 10.2 82 1.6 S 9 15 5 8 1025.0 1024.9 0.0
23/08:30pm 14.6 12.2 11.4 81 1.7 S 15 17 8 9 1024.8 1024.7 0.0
23/08:00pm 15.0 12.5 11.0 77 2.1 S 15 19 8 10 1024.8 1024.7 0.0
23/07:30pm 15.7 12.7 10.7 72 2.7 S 17 22 9 12 1024.7 1024.6 0.0
23/07:00pm 16.1 12.8 9.5 65 3.4 S 17 20 9 11 1024.5 1024.4 0.0
23/06:30pm 16.9 12.8 6.4 50 5.2 S 17 22 9 12 1024.2 1024.1 0.0
23/06:00pm 17.8 14.7 5.7 45 5.9 SSW 11 17 6 9 1024.0 1023.8 0.0
23/05:30pm 19.9 15.8 6.3 41 6.9 S 17 24 9 13 1023.7 1023.5 0.0
23/05:00pm 21.4 16.8 6.5 38 7.6 S 20 28 11 15 1023.5 1023.3 0.0
23/04:30pm 22.0 17.2 5.8 35 8.2 S 20 26 11 14 1023.5 1023.3 0.0
23/04:00pm 22.5 17.6 5.0 32 8.7 S 20 26 11 14 1023.5 1023.3 0.0
23/03:30pm 22.6 18.3 3.2 28 9.4 S 15 22 8 12 1023.6 1023.4 0.0
23/03:00pm 22.7 18.0 1.1 24 10.0 S 15 22 8 12 1024.2 1024.1 0.0
23/02:30pm 22.7 18.3 0.5 23 10.2 S 13 20 7 11 1024.3 1024.2 0.0
23/02:00pm 22.5 17.8 -1.6 20 10.6 SE 13 20 7 11 1024.9 1024.8 0.0
23/01:30pm 21.9 17.2 1.0 25 9.7 SSE 15 19 8 10 1025.3 1025.2 0.0
23/01:00pm 21.0 17.1 3.2 31 8.5 SE 13 24 7 13 1025.7 1025.6 0.0
23/12:30pm 21.0 17.4 5.0 35 7.9 S 13 20 7 11 1026.4 1026.2 0.0
23/12:00pm 20.7 18.3 7.0 41 7.0 SSE 9 20 5 11 1026.8 1026.6 0.0
23/11:30am 19.7 16.6 5.7 40 7.0 SSE 11 19 6 10 1027.4 1027.2 0.0
23/11:00am 19.2 16.7 6.7 44 6.3 S 9 15 5 8 1027.9 1027.7 0.0
23/10:30am 17.8 15.4 7.2 50 5.4 SSW 9 15 5 8 1028.5 1028.4 0.0
23/10:00am 17.0 14.7 7.4 53 4.8 SW 9 15 5 8 1028.7 1028.6 0.0
23/09:30am 16.0 14.3 7.5 57 4.3 SSE 6 9 3 5 1029.0 1028.9 0.0
23/09:00am 14.3 12.6 7.4 63 3.4 SE 6 11 3 6 1029.3 1029.2 0.0
23/08:30am 13.5 12.8 8.4 71 2.6 SSE 2 6 1 3 1029.7 1029.6 0.0
23/08:00am 11.1 10.6 8.0 81 1.5 CALM 0 0 0 0 1029.8 1029.7 0.0
23/07:30am 9.2 8.6 7.3 88 0.9 CALM 0 0 0 0 1029.7 1029.6 0.0
23/07:00am 7.2 6.5 7.1 99 0.0 CALM 0 0 0 0 1029.7 1029.6 0.0
23/06:30am 4.3 3.0 4.2 99 0.0 CALM 0 0 0 0 1029.4 1029.3 0.0
23/06:00am 2.9 1.4 2.8 99 0.0 CALM 0 0 0 0 1029.4 1029.3 0.0
23/05:30am 3.0 1.5 2.9 99 0.0 CALM 0 6 0 3 1029.4 1029.3 0.0
23/05:00am 3.0 1.5 2.9 99 0.0 CALM 0 0 0 0 1029.3 1029.2 0.0
23/04:30am 3.6 2.2 3.5 99 0.0 CALM 0 0 0 0 1029.1 1029.0 0.0
23/04:00am 3.7 2.3 3.6 99 0.0 CALM 0 0 0 0 1028.9 1028.8 0.0
23/03:30am 4.3 3.0 4.2 99 0.0 CALM 0 0 0 0 1028.7 1028.6 0.0
23/03:00am 4.2 2.9 3.9 98 0.1 CALM 0 0 0 0 1028.7 1028.6 0.0
23/02:30am 4.3 1.8 4.0 98 0.1 WNW 6 7 3 4 1028.7 1028.6 0.0
23/02:00am 5.0 3.8 4.6 97 0.2 CALM 0 0 0 0 1029.0 1028.9 0.0
23/01:30am 5.3 4.1 4.7 96 0.3 CALM 0 0 0 0 1029.1 1029.0 0.0
23/01:00am 5.3 4.1 4.4 94 0.4 CALM 0 6 0 3 1029.2 1029.1 0.0
23/12:30am 5.6 3.6 4.2 91 0.6 WNW 4 7 2 4 1029.4 1029.3 0.0
23/12:00am 6.8 5.0 5.6 92 0.5 NNW 4 7 2 4 1029.3 1029.2 0.0
 
Date/Time
EST
Temp
°C
App
Temp
°C
Dew
Point
Rel
Hum
%
Delta-T
°C
Wind Press
QNH
hPa
Press
MSL
hPa
Rain
since 9 am
mm
Dir
 
Spd
km/h
Gust
km/h
Spd
kts
Gust
kts
22/11:30pm 6.8 5.7 5.0 88 0.8 CALM 0 0 0 0 1029.2 1029.1 0.0
22/11:00pm 7.8 6.8 5.4 85 1.1 CALM 0 0 0 0 1029.1 1029.0 0.0
22/10:30pm 8.6 7.3 5.9 83 1.2 NNE 2 7 1 4 1029.0 1028.9 0.0
22/10:00pm 9.4 8.5 5.9 79 1.6 CALM 0 2 0 1 1029.0 1028.9 0.0
22/09:30pm 10.2 6.7 5.6 73 2.1 S 13 15 7 8 1028.9 1028.8 0.0
22/09:00pm 12.6 8.7 6.9 68 2.8 S 17 19 9 10 1028.8 1028.7 0.0
22/08:30pm 13.1 9.2 6.9 66 3.0 S 17 20 9 11 1028.7 1028.6 0.0
22/08:00pm 13.6 9.7 6.9 64 3.3 S 17 22 9 12 1028.6 1028.5 0.0
22/07:30pm 14.5 10.3 7.3 62 3.6 S 19 22 10 12 1028.1 1028.0 0.0
22/07:00pm 14.9 11.0 7.2 60 3.8 S 17 22 9 12 1027.8 1027.6 0.0
22/06:30pm 15.4 11.6 5.9 53 4.6 S 15 19 8 10 1027.4 1027.2 0.0
22/06:00pm 16.5 12.3 5.8 49 5.2 S 17 20 9 11 1027.1 1026.9 0.0
22/05:30pm 18.3 13.7 5.8 44 6.2 S 19 22 10 12 1027.0 1026.8 0.0
22/05:00pm 19.7 14.5 5.7 40 6.9 S 22 26 12 14 1026.7 1026.5 0.0
22/04:30pm 20.4 15.6 5.6 38 7.4 S 20 28 11 15 1026.5 1026.3 0.0
22/04:00pm 20.9 15.8 6.1 38 7.5 S 22 33 12 18 1026.3 1026.1 0.0
22/03:30pm 21.1 16.4 5.9 37 7.7 S 20 28 11 15 1026.4 1026.2 0.0
22/03:00pm 21.4 17.1 6.9 39 7.4 S 19 32 10 17 1026.6 1026.4 0.0
22/02:30pm 20.9 16.0 6.8 40 7.2 S 22 33 12 18 1026.7 1026.5 0.0
22/02:00pm 21.1 17.6 7.0 40 7.2 S 15 30 8 16 1027.1 1026.9 0.0
22/01:30pm 21.0 17.7 8.0 43 6.8 S 15 24 8 13 1027.5 1027.3 0.0
22/01:00pm 20.2 17.0 6.9 42 6.8 S 13 26 7 14 1028.0 1027.8 0.0
22/12:30pm 20.2 16.3 7.2 43 6.7 S 17 24 9 13 1028.4 1028.3 0.0
22/12:00pm 20.3 16.6 8.0 45 6.4 S 17 26 9 14 1028.9 1028.8 0.0
22/11:30am 19.1 15.6 5.6 41 6.7 S 13 28 7 15 1029.6 1029.5 0.0
22/11:00am 19.1 16.3 6.9 45 6.2 ESE 11 19 6 10 1030.0 1029.9 0.0
22/10:30am 17.7 14.5 6.9 49 5.4 SE 13 22 7 12 1030.6 1030.5 0.0
22/10:00am 16.5 14.1 8.5 59 4.1 SSE 11 17 6 9 1031.0 1030.8 0.0
22/09:30am 15.1 14.0 10.1 72 2.6 SW 6 9 3 5 1031.4 1031.2 0.0
22/09:00am 13.2 12.4 9.5 78 1.9 SE 4 7 2 4 1031.6 1031.4 0.0
22/08:30am 12.0 11.6 11.1 94 0.5 NE 4 9 2 5 1031.8 1031.6 0.0
22/08:00am 10.2 9.9 10.0 99 0.1 ENE 2 6 1 3 1031.7 1031.5 0.0
22/07:30am 9.4 8.5 9.3 99 0.1 NE 4 7 2 4 1031.5 1031.3 0.0
22/07:00am 8.2 7.8 8.1 99 0.0 CALM 0 0 0 0 1031.2 1031.0 0.0
22/06:30am 5.1 4.0 5.0 99 0.0 CALM 0 0 0 0 1030.5 1030.4 0.0
22/06:00am 4.0 2.7 3.9 99 0.0 CALM 0 0 0 0 1030.1 1030.0 0.0
22/05:30am 3.5 2.1 3.4 99 0.0 CALM 0 0 0 0 1029.7 1029.6 0.0
22/05:00am 3.7 2.3 3.6 99 0.0 CALM 0 0 0 0 1029.3 1029.2 0.0
22/04:30am 3.6 2.2 3.5 99 0.0 CALM 0 0 0 0 1029.0 1028.9 0.0
22/04:00am 3.6 1.8 3.5 99 0.0 WNW 2 6 1 3 1028.8 1028.7 0.0
22/03:30am 4.0 2.3 3.9 99 0.0 WNW 2 7 1 4 1028.6 1028.5 0.0
22/03:00am 4.3 3.0 3.9 97 0.2 CALM 0 0 0 0 1028.6 1028.5 0.0
22/02:30am 5.0 2.7 4.7 98 0.1 W 6 7 3 4 1028.5 1028.4 0.0
22/02:00am 5.5 4.0 5.2 98 0.1 NE 2 6 1 3 1028.8 1028.7 0.0
22/01:30am 5.9 3.7 5.3 96 0.3 NNE 6 7 3 4 1029.0 1028.9 0.0
22/01:00am 6.1 5.1 5.4 95 0.3 CALM 0 0 0 0 1029.2 1029.1 0.0
22/12:30am 6.4 4.6 5.5 94 0.4 NNE 4 6 2 3 1029.4 1029.3 0.0
22/12:00am 7.0 4.8 5.5 90 0.7 NE 6 9 3 5 1029.3 1029.2 0.0
 
Date/Time
EST
Temp
°C
App
Temp
°C
Dew
Point
Rel
Hum
%
Delta-T
°C
Wind Press
QNH
hPa
Press
MSL
hPa
Rain
since 9 am
mm
Dir
 
Spd
km/h
Gust
km/h
Spd
kts
Gust
kts
21/11:30pm 8.7 6.7 7.0 89 0.8 NE 7 11 4 6 1029.2 1029.1 0.0
21/11:00pm 10.8 7.6 8.6 86 1.1 S 15 17 8 9 1029.2 1029.1 0.0
21/10:30pm 11.6 8.5 9.0 84 1.3 S 15 17 8 9 1029.2 1029.1 0.0
21/10:00pm 11.9 8.4 8.9 82 1.5 S 17 20 9 11 1029.0 1028.9 0.0
21/09:30pm 11.6 8.7 8.1 79 1.7 S 13 15 7 8 1028.9 1028.8 0.0
21/09:00pm 12.5 9.6 8.2 75 2.1 S 13 15 7 8 1028.6 1028.5 0.0
21/08:30pm 12.6 8.9 8.1 74 2.2 S 17 20 9 11 1028.2 1028.1 0.0
21/08:00pm 13.8 9.8 8.4 70 2.7 S 19 22 10 12 1028.0 1027.8 0.0
21/07:30pm 14.1 10.1 8.1 67 3.0 S 19 22 10 12 1027.7 1027.5 0.0
21/07:00pm 14.4 11.0 7.5 63 3.4 S 15 19 8 10 1027.4 1027.2 0.0
21/06:30pm 14.6 12.2 7.2 61 3.7 S 9 13 5 7 1026.6 1026.4 0.0
21/06:00pm 16.3 12.9 7.5 56 4.4 SSE 15 20 8 11 1026.1 1025.9 0.0
21/05:30pm 17.4 13.1 6.9 50 5.3 SSE 19 26 10 14 1025.7 1025.6 0.0
21/05:00pm 18.5 13.9 6.4 45 6.0 SE 20 26 11 14 1025.5 1025.4 0.0
21/04:30pm 19.5 14.7 4.8 38 7.2 SE 19 24 10 13 1025.2 1025.1 0.0
21/04:00pm 20.0 15.1 5.3 38 7.3 ESE 20 28 11 15 1025.2 1025.1 0.0
21/03:30pm 20.2 15.0 5.4 38 7.4 ESE 22 24 12 13 1025.0 1024.9 0.0
21/03:00pm 19.8 13.5 5.8 40 7.0 SSE 28 35 15 19 1024.7 1024.6 0.0

Other Formats:

Comma delimited format used in spreadsheet applications
http://www.bom.gov.au/fwo/IDN60801/IDN60801.95758.axf

JavaScript Object Notation format (JSON) in row-major order
http://www.bom.gov.au/fwo/IDN60801/IDN60801.95758.json